Overview Statistics Trail Chart Weather Telemetry Raw packets
 

This is the latest recevied weather packets stored in our database for station/object N0KTA-2. If no packets are shown the sender has not sent any weather packets the latest 10 day(s).

<< 52 53 54 55 56 57 58 >>
Time Temp. Humidity Pressure Rain* Wind** Luminosity Snow
1787864902 33.33° C 45% 1012.2 hPa 0 mm - - -
1787864303 33.33° C 44% 1012.4 hPa 0 mm - - -
1787863701 33.33° C 42% 1012.6 hPa 0 mm - - -
1787863103 33.33° C 45% 1012.5 hPa 0 mm - - -
1787862502 33.33° C 44% 1012.6 hPa 0 mm - - -
1787861902 33.33° C 46% 1012.6 hPa 0 mm - - -
1787861303 33.33° C 47% 1012.8 hPa 0 mm - - -
1787860702 33.33° C 45% 1012.9 hPa 0 mm - - -
1787860103 33.33° C 43% 1013 hPa 0 mm - - -
1787859502 33.33° C 44% 1013.1 hPa 0 mm - - -
1787858901 32.78° C 47% 1013.2 hPa 0 mm - - -
1787858302 32.78° C 48% 1013.2 hPa 0 mm - - -
1787857701 32.22° C 48% 1013.5 hPa 0 mm - - -
1787857102 32.22° C 47% 1013.7 hPa 0 mm - - -
1787856501 32.22° C 48% 1013.9 hPa 0 mm - - -
1787855903 32.22° C 49% 1014.1 hPa 0 mm - - -
1787855302 31.67° C 48% 1014.2 hPa 0 mm - - -
1787854703 32.78° C 46% 1014.1 hPa 0 mm - - -
1787854102 32.22° C 50% 1014.2 hPa 0 mm - - -
1787853501 31.11° C 51% 1014.4 hPa 0 mm - - -
1787852902 31.67° C 50% 1014.6 hPa 0 mm - - -
1787852301 31.67° C 50% 1014.6 hPa 0 mm - - -
1787851703 31.67° C 50% 1014.7 hPa 0 mm - - -
1787851101 30.56° C 53% 1014.8 hPa 0 mm - - -
1787850501 30.56° C 52% 1015 hPa 0 mm - - -

* Rain latest hour (hover to see other rain measurements)
** Current wind speed in m/s (hover to see current wind gust speed)